sensor_id;sensor_type;location;lat;lon;timestamp;pressure;altitude;pressure_sealevel;temperature;humidity
8627;BME280;4351;51.422;6.794;2023-02-21T00:02:37;101426.28;;;8.57;100.00
8627;BME280;4351;51.422;6.794;2023-02-21T00:05:23;101427.16;;;8.58;100.00
8627;BME280;4351;51.422;6.794;2023-02-21T00:08:09;101422.34;;;8.66;100.00
8627;BME280;4351;51.422;6.794;2023-02-21T00:10:55;101422.53;;;8.61;100.00
8627;BME280;4351;51.422;6.794;2023-02-21T00:13:41;101418.38;;;8.53;100.00
8627;BME280;4351;51.422;6.794;2023-02-21T00:16:26;101424.91;;;8.69;100.00
8627;BME280;4351;51.422;6.794;2023-02-21T00:19:11;101421.75;;;8.80;100.00
8627;BME280;4351;51.422;6.794;2023-02-21T00:21:56;101424.78;;;8.72;100.00
8627;BME280;4351;51.422;6.794;2023-02-21T00:24:43;101418.16;;;8.59;100.00
8627;BME280;4351;51.422;6.794;2023-02-21T00:27:29;101408.94;;;8.65;100.00
8627;BME280;4351;51.422;6.794;2023-02-21T00:30:14;101417.13;;;8.39;100.00
8627;BME280;4351;51.422;6.794;2023-02-21T00:33:00;101411.69;;;8.63;100.00
8627;BME280;4351;51.422;6.794;2023-02-21T00:35:45;101421.88;;;8.55;100.00
8627;BME280;4351;51.422;6.794;2023-02-21T00:38:31;101420.06;;;8.55;100.00
8627;BME280;4351;51.422;6.794;2023-02-21T00:41:18;101406.63;;;8.55;100.00
8627;BME280;4351;51.422;6.794;2023-02-21T00:44:05;101410.22;;;8.54;100.00
8627;BME280;4351;51.422;6.794;2023-02-21T00:46:50;101402.63;;;8.66;100.00
8627;BME280;4351;51.422;6.794;2023-02-21T00:49:35;101408.63;;;8.72;100.00
8627;BME280;4351;51.422;6.794;2023-02-21T00:52:21;101398.03;;;8.45;100.00
8627;BME280;4351;51.422;6.794;2023-02-21T00:55:06;101396.72;;;8.56;100.00
8627;BME280;4351;51.422;6.794;2023-02-21T00:57:53;101392.28;;;8.55;100.00
8627;BME280;4351;51.422;6.794;2023-02-21T01:00:38;101390.16;;;8.40;100.00
8627;BME280;4351;51.422;6.794;2023-02-21T01:03:24;101383.59;;;8.48;100.00
8627;BME280;4351;51.422;6.794;2023-02-21T01:06:10;101379.84;;;8.52;100.00
8627;BME280;4351;51.422;6.794;2023-02-21T01:08:56;101371.97;;;8.47;100.00
8627;BME280;4351;51.422;6.794;2023-02-21T01:11:41;101374.41;;;8.76;100.00
8627;BME280;4351;51.422;6.794;2023-02-21T01:14:28;101363.03;;;8.69;100.00
8627;BME280;4351;51.422;6.794;2023-02-21T01:17:13;101354.53;;;8.35;100.00
8627;BME280;4351;51.422;6.794;2023-02-21T01:19:59;101348.94;;;8.62;100.00
8627;BME280;4351;51.422;6.794;2023-02-21T01:22:45;101342.84;;;8.59;100.00
8627;BME280;4351;51.422;6.794;2023-02-21T01:25:31;101338.97;;;8.44;100.00
8627;BME280;4351;51.422;6.794;2023-02-21T01:28:16;101331.69;;;8.46;100.00
8627;BME280;4351;51.422;6.794;2023-02-21T01:31:03;101319.88;;;8.50;100.00
8627;BME280;4351;51.422;6.794;2023-02-21T01:33:49;101313.94;;;8.42;100.00
8627;BME280;4351;51.422;6.794;2023-02-21T01:36:34;101311.19;;;8.43;100.00
8627;BME280;4351;51.422;6.794;2023-02-21T01:39:19;101300.03;;;8.53;100.00
8627;BME280;4351;51.422;6.794;2023-02-21T01:42:05;101293.63;;;8.34;100.00
8627;BME280;4351;51.422;6.794;2023-02-21T01:45:28;101278.13;;;8.41;100.00
8627;BME280;4351;51.422;6.794;2023-02-21T01:48:21;101273.66;;;8.62;100.00
8627;BME280;4351;51.422;6.794;2023-02-21T01:51:09;101270.47;;;8.53;100.00
8627;BME280;4351;51.422;6.794;2023-02-21T01:53:56;101262.09;;;8.60;100.00
8627;BME280;4351;51.422;6.794;2023-02-21T01:56:43;101261.06;;;8.42;100.00
8627;BME280;4351;51.422;6.794;2023-02-21T01:59:28;101265.00;;;8.33;100.00
8627;BME280;4351;51.422;6.794;2023-02-21T02:02:17;101259.91;;;8.48;100.00
8627;BME280;4351;51.422;6.794;2023-02-21T02:05:07;101249.38;;;8.64;100.00
8627;BME280;4351;51.422;6.794;2023-02-21T02:07:54;101263.19;;;8.55;100.00
8627;BME280;4351;51.422;6.794;2023-02-21T02:10:40;101244.91;;;8.42;100.00
8627;BME280;4351;51.422;6.794;2023-02-21T02:13:39;101238.13;;;8.33;100.00
8627;BME280;4351;51.422;6.794;2023-02-21T02:16:19;101231.53;;;8.40;100.00
8627;BME280;4351;51.422;6.794;2023-02-21T02:18:59;101232.59;;;8.15;100.00
8627;BME280;4351;51.422;6.794;2023-02-21T02:21:59;101226.28;;;8.37;100.00
8627;BME280;4351;51.422;6.794;2023-02-21T02:24:59;101220.50;;;8.47;100.00
8627;BME280;4351;51.422;6.794;2023-02-21T02:27:40;101211.13;;;8.57;100.00
8627;BME280;4351;51.422;6.794;2023-02-21T02:30:26;101211.28;;;8.32;100.00
8627;BME280;4351;51.422;6.794;2023-02-21T02:33:22;101193.47;;;8.50;100.00
8627;BME280;4351;51.422;6.794;2023-02-21T02:35:55;101198.44;;;8.38;100.00
8627;BME280;4351;51.422;6.794;2023-02-21T02:38:28;101183.69;;;8.28;100.00
8627;BME280;4351;51.422;6.794;2023-02-21T02:41:00;101187.44;;;8.24;100.00
8627;BME280;4351;51.422;6.794;2023-02-21T02:43:32;101183.75;;;8.26;100.00
8627;BME280;4351;51.422;6.794;2023-02-21T02:46:05;101185.28;;;8.32;100.00
8627;BME280;4351;51.422;6.794;2023-02-21T02:48:37;101177.31;;;8.31;100.00
8627;BME280;4351;51.422;6.794;2023-02-21T02:51:12;101179.91;;;8.32;100.00
8627;BME280;4351;51.422;6.794;2023-02-21T02:53:41;101175.75;;;8.46;100.00
8627;BME280;4351;51.422;6.794;2023-02-21T02:56:10;101175.13;;;8.39;100.00
8627;BME280;4351;51.422;6.794;2023-02-21T02:58:42;101167.53;;;8.28;100.00
8627;BME280;4351;51.422;6.794;2023-02-21T03:01:38;101164.75;;;8.31;100.00
8627;BME280;4351;51.422;6.794;2023-02-21T03:04:26;101164.19;;;8.23;100.00
8627;BME280;4351;51.422;6.794;2023-02-21T03:07:06;101171.78;;;8.13;100.00
8627;BME280;4351;51.422;6.794;2023-02-21T03:09:45;101171.59;;;8.18;100.00
8627;BME280;4351;51.422;6.794;2023-02-21T03:12:24;101177.09;;;8.14;100.00
8627;BME280;4351;51.422;6.794;2023-02-21T03:15:00;101177.06;;;8.56;100.00
8627;BME280;4351;51.422;6.794;2023-02-21T03:17:32;101167.00;;;8.40;100.00
8627;BME280;4351;51.422;6.794;2023-02-21T03:20:04;101161.16;;;8.31;100.00
8627;BME280;4351;51.422;6.794;2023-02-21T03:22:35;101153.69;;;8.16;100.00
8627;BME280;4351;51.422;6.794;2023-02-21T03:25:04;101162.28;;;8.25;100.00
8627;BME280;4351;51.422;6.794;2023-02-21T03:27:36;101155.16;;;8.45;100.00
8627;BME280;4351;51.422;6.794;2023-02-21T03:30:13;101163.66;;;8.35;100.00
8627;BME280;4351;51.422;6.794;2023-02-21T03:32:46;101160.97;;;8.14;100.00
8627;BME280;4351;51.422;6.794;2023-02-21T03:35:19;101163.38;;;8.21;100.00
8627;BME280;4351;51.422;6.794;2023-02-21T03:37:50;101173.94;;;8.04;100.00
8627;BME280;4351;51.422;6.794;2023-02-21T03:40:25;101164.19;;;8.23;100.00
8627;BME280;4351;51.422;6.794;2023-02-21T03:42:57;101177.38;;;8.29;100.00
8627;BME280;4351;51.422;6.794;2023-02-21T03:45:29;101172.19;;;8.24;100.00
8627;BME280;4351;51.422;6.794;2023-02-21T03:48:05;101165.72;;;8.49;100.00
8627;BME280;4351;51.422;6.794;2023-02-21T03:50:35;101177.63;;;8.44;100.00
8627;BME280;4351;51.422;6.794;2023-02-21T03:53:04;101160.28;;;8.30;100.00
8627;BME280;4351;51.422;6.794;2023-02-21T03:55:36;101161.56;;;8.21;100.00
8627;BME280;4351;51.422;6.794;2023-02-21T03:58:09;101153.56;;;8.20;100.00
8627;BME280;4351;51.422;6.794;2023-02-21T04:00:37;101162.09;;;8.30;100.00
8627;BME280;4351;51.422;6.794;2023-02-21T04:03:06;101155.72;;;8.32;100.00
8627;BME280;4351;51.422;6.794;2023-02-21T04:05:39;101166.16;;;8.40;100.00
8627;BME280;4351;51.422;6.794;2023-02-21T04:08:09;101158.13;;;8.38;100.00
8627;BME280;4351;51.422;6.794;2023-02-21T04:10:37;101157.41;;;8.35;100.00
8627;BME280;4351;51.422;6.794;2023-02-21T04:13:19;101151.16;;;8.34;100.00
8627;BME280;4351;51.422;6.794;2023-02-21T04:15:50;101157.94;;;8.22;100.00
8627;BME280;4351;51.422;6.794;2023-02-21T04:18:19;101148.81;;;8.26;100.00
8627;BME280;4351;51.422;6.794;2023-02-21T04:20:50;101140.94;;;8.22;100.00
8627;BME280;4351;51.422;6.794;2023-02-21T04:23:20;101146.44;;;8.19;100.00
8627;BME280;4351;51.422;6.794;2023-02-21T04:25:49;101147.25;;;8.00;100.00
8627;BME280;4351;51.422;6.794;2023-02-21T04:28:24;101158.06;;;8.19;100.00
8627;BME280;4351;51.422;6.794;2023-02-21T04:30:52;101153.38;;;8.03;100.00
8627;BME280;4351;51.422;6.794;2023-02-21T04:33:20;101152.38;;;8.06;100.00
8627;BME280;4351;51.422;6.794;2023-02-21T04:35:47;101159.63;;;8.04;100.00
8627;BME280;4351;51.422;6.794;2023-02-21T04:38:25;101164.00;;;8.07;100.00
8627;BME280;4351;51.422;6.794;2023-02-21T04:40:53;101160.63;;;8.01;100.00
8627;BME280;4351;51.422;6.794;2023-02-21T04:43:22;101168.38;;;8.09;100.00
8627;BME280;4351;51.422;6.794;2023-02-21T04:45:50;101168.75;;;8.00;100.00
8627;BME280;4351;51.422;6.794;2023-02-21T04:48:18;101167.50;;;8.09;100.00
8627;BME280;4351;51.422;6.794;2023-02-21T04:50:46;101161.13;;;8.11;100.00
8627;BME280;4351;51.422;6.794;2023-02-21T04:53:14;101154.84;;;8.11;100.00
8627;BME280;4351;51.422;6.794;2023-02-21T04:55:44;101162.44;;;8.22;100.00
8627;BME280;4351;51.422;6.794;2023-02-21T04:58:12;101151.91;;;8.17;100.00
8627;BME280;4351;51.422;6.794;2023-02-21T05:00:40;101146.41;;;8.20;100.00
8627;BME280;4351;51.422;6.794;2023-02-21T05:03:07;101144.19;;;8.09;100.00
8627;BME280;4351;51.422;6.794;2023-02-21T05:05:35;101143.75;;;7.98;100.00
8627;BME280;4351;51.422;6.794;2023-02-21T05:08:03;101149.13;;;7.98;100.00
8627;BME280;4351;51.422;6.794;2023-02-21T05:10:31;101147.66;;;8.11;100.00
8627;BME280;4351;51.422;6.794;2023-02-21T05:13:13;101150.75;;;8.02;100.00
8627;BME280;4351;51.422;6.794;2023-02-21T05:15:41;101150.63;;;8.05;100.00
8627;BME280;4351;51.422;6.794;2023-02-21T05:18:09;101155.78;;;8.10;100.00
8627;BME280;4351;51.422;6.794;2023-02-21T05:20:37;101154.97;;;8.08;100.00
8627;BME280;4351;51.422;6.794;2023-02-21T05:23:05;101151.81;;;8.19;100.00
8627;BME280;4351;51.422;6.794;2023-02-21T05:25:39;101149.94;;;8.21;100.00
8627;BME280;4351;51.422;6.794;2023-02-21T05:28:07;101153.84;;;8.13;100.00
8627;BME280;4351;51.422;6.794;2023-02-21T05:30:37;101145.38;;;8.02;100.00
8627;BME280;4351;51.422;6.794;2023-02-21T05:33:05;101152.97;;;8.13;100.00
8627;BME280;4351;51.422;6.794;2023-02-21T05:35:33;101146.53;;;7.96;100.00
8627;BME280;4351;51.422;6.794;2023-02-21T05:38:01;101145.59;;;8.18;100.00
8627;BME280;4351;51.422;6.794;2023-02-21T05:40:28;101143.75;;;8.19;100.00
8627;BME280;4351;51.422;6.794;2023-02-21T05:42:57;101130.19;;;8.01;100.00
8627;BME280;4351;51.422;6.794;2023-02-21T05:45:25;101127.97;;;8.11;100.00
8627;BME280;4351;51.422;6.794;2023-02-21T05:47:54;101130.34;;;7.98;100.00
8627;BME280;4351;51.422;6.794;2023-02-21T05:50:25;101130.25;;;7.99;100.00
8627;BME280;4351;51.422;6.794;2023-02-21T05:52:53;101128.59;;;8.18;100.00
8627;BME280;4351;51.422;6.794;2023-02-21T05:55:22;101122.72;;;8.08;100.00
8627;BME280;4351;51.422;6.794;2023-02-21T05:57:50;101121.06;;;8.05;100.00
8627;BME280;4351;51.422;6.794;2023-02-21T06:00:22;101128.88;;;8.11;100.00
8627;BME280;4351;51.422;6.794;2023-02-21T06:02:51;101127.34;;;8.25;100.00
8627;BME280;4351;51.422;6.794;2023-02-21T06:05:20;101136.41;;;8.03;100.00
8627;BME280;4351;51.422;6.794;2023-02-21T06:07:49;101133.75;;;8.01;100.00
8627;BME280;4351;51.422;6.794;2023-02-21T06:10:17;101134.91;;;7.96;100.00
8627;BME280;4351;51.422;6.794;2023-02-21T06:12:45;101144.69;;;7.97;100.00
8627;BME280;4351;51.422;6.794;2023-02-21T06:15:13;101139.09;;;8.03;100.00
8627;BME280;4351;51.422;6.794;2023-02-21T06:17:42;101143.50;;;8.04;100.00
8627;BME280;4351;51.422;6.794;2023-02-21T06:20:11;101141.94;;;8.19;100.00
8627;BME280;4351;51.422;6.794;2023-02-21T06:22:41;101138.53;;;8.15;100.00
8627;BME280;4351;51.422;6.794;2023-02-21T06:25:09;101137.44;;;8.20;100.00
8627;BME280;4351;51.422;6.794;2023-02-21T06:27:37;101138.66;;;8.33;100.00
8627;BME280;4351;51.422;6.794;2023-02-21T06:30:06;101120.13;;;8.06;100.00
8627;BME280;4351;51.422;6.794;2023-02-21T06:32:35;101118.13;;;8.11;100.00
8627;BME280;4351;51.422;6.794;2023-02-21T06:35:03;101112.13;;;8.04;100.00
8627;BME280;4351;51.422;6.794;2023-02-21T06:37:31;101114.22;;;7.98;100.00
8627;BME280;4351;51.422;6.794;2023-02-21T06:40:00;101126.03;;;7.93;100.00
8627;BME280;4351;51.422;6.794;2023-02-21T06:42:30;101135.16;;;7.89;100.00
8627;BME280;4351;51.422;6.794;2023-02-21T06:44:58;101133.41;;;7.88;100.00
8627;BME280;4351;51.422;6.794;2023-02-21T06:47:29;101148.47;;;7.92;100.00
8627;BME280;4351;51.422;6.794;2023-02-21T06:49:58;101153.28;;;7.84;100.00
8627;BME280;4351;51.422;6.794;2023-02-21T06:52:29;101160.00;;;7.94;100.00
8627;BME280;4351;51.422;6.794;2023-02-21T06:54:57;101157.03;;;7.80;100.00
8627;BME280;4351;51.422;6.794;2023-02-21T06:57:26;101162.31;;;7.83;100.00
8627;BME280;4351;51.422;6.794;2023-02-21T06:59:55;101154.25;;;7.83;100.00
8627;BME280;4351;51.422;6.794;2023-02-21T07:02:23;101152.81;;;7.74;100.00
8627;BME280;4351;51.422;6.794;2023-02-21T07:04:51;101156.50;;;7.92;100.00
8627;BME280;4351;51.422;6.794;2023-02-21T07:07:19;101154.78;;;7.91;100.00
8627;BME280;4351;51.422;6.794;2023-02-21T07:09:47;101146.03;;;7.86;100.00
8627;BME280;4351;51.422;6.794;2023-02-21T07:12:15;101132.88;;;7.80;100.00
8627;BME280;4351;51.422;6.794;2023-02-21T07:14:44;101143.94;;;7.72;100.00
8627;BME280;4351;51.422;6.794;2023-02-21T07:17:12;101141.63;;;7.85;100.00
8627;BME280;4351;51.422;6.794;2023-02-21T07:19:40;101146.41;;;7.77;100.00
8627;BME280;4351;51.422;6.794;2023-02-21T07:22:08;101160.44;;;7.85;100.00
8627;BME280;4351;51.422;6.794;2023-02-21T07:24:36;101158.53;;;7.87;100.00
8627;BME280;4351;51.422;6.794;2023-02-21T07:27:04;101159.53;;;7.85;100.00
8627;BME280;4351;51.422;6.794;2023-02-21T07:29:32;101150.75;;;8.02;100.00
8627;BME280;4351;51.422;6.794;2023-02-21T07:32:02;101153.03;;;7.90;100.00
8627;BME280;4351;51.422;6.794;2023-02-21T07:34:30;101143.63;;;8.01;100.00
8627;BME280;4351;51.422;6.794;2023-02-21T07:36:57;101143.50;;;8.04;100.00
8627;BME280;4351;51.422;6.794;2023-02-21T07:39:25;101143.22;;;8.10;100.00
8627;BME280;4351;51.422;6.794;2023-02-21T07:41:53;101133.34;;;7.90;100.00
8627;BME280;4351;51.422;6.794;2023-02-21T07:44:27;101143.03;;;7.94;100.00
8627;BME280;4351;51.422;6.794;2023-02-21T07:46:56;101144.63;;;7.77;100.00
8627;BME280;4351;51.422;6.794;2023-02-21T07:49:25;101154.78;;;7.91;100.00
8627;BME280;4351;51.422;6.794;2023-02-21T07:51:54;101150.69;;;7.82;100.00
8627;BME280;4351;51.422;6.794;2023-02-21T07:54:34;101149.09;;;7.77;100.00
8627;BME280;4351;51.422;6.794;2023-02-21T07:57:02;101150.97;;;7.75;100.00
8627;BME280;4351;51.422;6.794;2023-02-21T07:59:30;101148.06;;;7.81;100.00
8627;BME280;4351;51.422;6.794;2023-02-21T08:01:58;101155.78;;;7.89;100.00
8627;BME280;4351;51.422;6.794;2023-02-21T08:04:28;101159.19;;;7.72;100.00
8627;BME280;4351;51.422;6.794;2023-02-21T08:06:58;101121.09;;;7.62;100.00
8627;BME280;4351;51.422;6.794;2023-02-21T08:09:26;101145.22;;;7.84;100.00
8627;BME280;4351;51.422;6.794;2023-02-21T08:11:53;101156.25;;;7.78;100.00
8627;BME280;4351;51.422;6.794;2023-02-21T08:14:21;101148.56;;;7.68;100.00
8627;BME280;4351;51.422;6.794;2023-02-21T08:16:49;101150.47;;;7.87;100.00
8627;BME280;4351;51.422;6.794;2023-02-21T08:19:17;101143.69;;;7.78;100.00
8627;BME280;4351;51.422;6.794;2023-02-21T08:21:48;101134.47;;;7.84;100.00
8627;BME280;4351;51.422;6.794;2023-02-21T08:24:17;101119.78;;;7.93;100.00
8627;BME280;4351;51.422;6.794;2023-02-21T08:26:45;101101.31;;;7.85;100.00
8627;BME280;4351;51.422;6.794;2023-02-21T08:29:14;101101.31;;;7.85;100.00
8627;BME280;4351;51.422;6.794;2023-02-21T08:31:43;101098.75;;;7.82;100.00
8627;BME280;4351;51.422;6.794;2023-02-21T08:34:12;101100.09;;;7.72;100.00
8627;BME280;4351;51.422;6.794;2023-02-21T08:36:42;101086.06;;;7.86;100.00
8627;BME280;4351;51.422;6.794;2023-02-21T08:39:12;101073.78;;;7.80;100.00
8627;BME280;4351;51.422;6.794;2023-02-21T08:41:42;101072.38;;;7.92;100.00
8627;BME280;4351;51.422;6.794;2023-02-21T08:44:12;101067.53;;;8.00;100.00
8627;BME280;4351;51.422;6.794;2023-02-21T08:46:42;101076.06;;;7.89;100.00
8627;BME280;4351;51.422;6.794;2023-02-21T08:49:10;101079.13;;;8.01;100.00
8627;BME280;4351;51.422;6.794;2023-02-21T08:51:41;101066.06;;;7.93;100.00
8627;BME280;4351;51.422;6.794;2023-02-21T08:54:09;101063.28;;;7.94;100.00
8627;BME280;4351;51.422;6.794;2023-02-21T08:56:39;101051.53;;;7.97;100.00
8627;BME280;4351;51.422;6.794;2023-02-21T08:59:06;101050.72;;;7.95;100.00
8627;BME280;4351;51.422;6.794;2023-02-21T09:01:35;101033.44;;;8.01;100.00
8627;BME280;4351;51.422;6.794;2023-02-21T09:04:04;101023.16;;;7.91;100.00
8627;BME280;4351;51.422;6.794;2023-02-21T09:06:33;101027.16;;;8.02;100.00
8627;BME280;4351;51.422;6.794;2023-02-21T09:09:01;101013.31;;;7.90;100.00
8627;BME280;4351;51.422;6.794;2023-02-21T09:11:29;101021.56;;;8.07;100.00
8627;BME280;4351;51.422;6.794;2023-02-21T09:13:59;101012.44;;;7.90;100.00
8627;BME280;4351;51.422;6.794;2023-02-21T09:16:27;101015.38;;;7.85;100.00
8627;BME280;4351;51.422;6.794;2023-02-21T09:18:55;101011.44;;;7.92;100.00
8627;BME280;4351;51.422;6.794;2023-02-21T09:21:25;101021.06;;;7.77;100.00
8627;BME280;4351;51.422;6.794;2023-02-21T09:23:54;101022.06;;;7.75;100.00
8627;BME280;4351;51.422;6.794;2023-02-21T09:26:25;101023.63;;;7.80;100.00
8627;BME280;4351;51.422;6.794;2023-02-21T09:28:58;101026.97;;;7.86;100.00
8627;BME280;4351;51.422;6.794;2023-02-21T09:31:27;101017.50;;;7.98;100.00
8627;BME280;4351;51.422;6.794;2023-02-21T09:33:55;101016.28;;;8.05;100.00
8627;BME280;4351;51.422;6.794;2023-02-21T09:36:23;101023.66;;;8.00;100.00
8627;BME280;4351;51.422;6.794;2023-02-21T09:38:50;101009.94;;;8.06;100.00
8627;BME280;4351;51.422;6.794;2023-02-21T09:41:19;100998.13;;;8.10;100.00
8627;BME280;4351;51.422;6.794;2023-02-21T09:43:49;100992.66;;;8.12;100.00
8627;BME280;4351;51.422;6.794;2023-02-21T09:46:28;100978.22;;;8.14;100.00
8627;BME280;4351;51.422;6.794;2023-02-21T09:48:59;100978.09;;;8.18;100.00
8627;BME280;4351;51.422;6.794;2023-02-21T09:51:30;100971.31;;;8.28;100.00
8627;BME280;4351;51.422;6.794;2023-02-21T09:53:59;100958.88;;;8.25;100.00
8627;BME280;4351;51.422;6.794;2023-02-21T09:56:30;100963.56;;;8.22;100.00
8627;BME280;4351;51.422;6.794;2023-02-21T09:59:00;100974.66;;;8.33;100.00
8627;BME280;4351;51.422;6.794;2023-02-21T10:01:38;100964.28;;;8.25;100.00
8627;BME280;4351;51.422;6.794;2023-02-21T10:04:16;100960.56;;;8.28;100.00
8627;BME280;4351;51.422;6.794;2023-02-21T10:06:51;100954.69;;;8.20;100.00
8627;BME280;4351;51.422;6.794;2023-02-21T10:09:27;100948.22;;;8.43;100.00
8627;BME280;4351;51.422;6.794;2023-02-21T10:12:09;100946.41;;;8.44;100.00
8627;BME280;4351;51.422;6.794;2023-02-21T10:14:53;100938.34;;;8.44;100.00
8627;BME280;4351;51.422;6.794;2023-02-21T10:17:31;100940.84;;;8.47;100.00
8627;BME280;4351;51.422;6.794;2023-02-21T10:20:04;100937.38;;;8.45;100.00
8627;BME280;4351;51.422;6.794;2023-02-21T10:22:39;100936.66;;;8.41;100.00
8627;BME280;4351;51.422;6.794;2023-02-21T10:25:19;100934.69;;;8.45;100.00
8627;BME280;4351;51.422;6.794;2023-02-21T10:27:49;100926.34;;;8.51;100.00
8627;BME280;4351;51.422;6.794;2023-02-21T10:30:26;100926.63;;;8.45;100.00
8627;BME280;4351;51.422;6.794;2023-02-21T10:32:57;100930.56;;;8.37;100.00
8627;BME280;4351;51.422;6.794;2023-02-21T10:35:25;100928.22;;;8.49;100.00
8627;BME280;4351;51.422;6.794;2023-02-21T10:37:55;100922.13;;;8.45;100.00
8627;BME280;4351;51.422;6.794;2023-02-21T10:40:31;100929.56;;;8.40;100.00
8627;BME280;4351;51.422;6.794;2023-02-21T10:43:03;100928.78;;;8.56;100.00
8627;BME280;4351;51.422;6.794;2023-02-21T10:45:35;100931.56;;;8.54;100.00
8627;BME280;4351;51.422;6.794;2023-02-21T10:48:09;100926.78;;;8.42;100.00
8627;BME280;4351;51.422;6.794;2023-02-21T10:50:41;100931.28;;;8.41;100.00
8627;BME280;4351;51.422;6.794;2023-02-21T10:53:30;100934.69;;;8.45;100.00
8627;BME280;4351;51.422;6.794;2023-02-21T10:56:26;100940.00;;;8.46;100.00
8627;BME280;4351;51.422;6.794;2023-02-21T10:58:56;100948.22;;;8.43;100.00
8627;BME280;4351;51.422;6.794;2023-02-21T11:01:33;100937.53;;;8.61;100.00
8627;BME280;4351;51.422;6.794;2023-02-21T11:04:05;100936.34;;;8.47;100.00
8627;BME280;4351;51.422;6.794;2023-02-21T11:06:36;100941.19;;;8.60;100.00
8627;BME280;4351;51.422;6.794;2023-02-21T11:09:28;100941.44;;;8.54;100.00
8627;BME280;4351;51.422;6.794;2023-02-21T11:12:02;100941.03;;;8.44;100.00
8627;BME280;4351;51.422;6.794;2023-02-21T11:14:31;100929.38;;;8.43;100.00
8627;BME280;4351;51.422;6.794;2023-02-21T11:17:14;100936.06;;;8.73;100.00
8627;BME280;4351;51.422;6.794;2023-02-21T11:19:50;100927.34;;;8.68;100.00
8627;BME280;4351;51.422;6.794;2023-02-21T11:22:21;100921.03;;;8.87;100.00
8627;BME280;4351;51.422;6.794;2023-02-21T11:25:02;100913.41;;;8.59;100.00
8627;BME280;4351;51.422;6.794;2023-02-21T11:27:33;100908.91;;;8.60;100.00
8627;BME280;4351;51.422;6.794;2023-02-21T11:30:10;100899.19;;;8.57;100.00
8627;BME280;4351;51.422;6.794;2023-02-21T11:32:42;100891.84;;;8.79;100.00
8627;BME280;4351;51.422;6.794;2023-02-21T11:35:26;100863.34;;;8.74;100.00
8627;BME280;4351;51.422;6.794;2023-02-21T11:37:57;100869.63;;;8.75;100.00
8627;BME280;4351;51.422;6.794;2023-02-21T11:40:29;100862.16;;;8.80;100.00
8627;BME280;4351;51.422;6.794;2023-02-21T11:43:21;100851.50;;;8.96;100.00
8627;BME280;4351;51.422;6.794;2023-02-21T11:46:02;100843.28;;;8.82;100.00
8627;BME280;4351;51.422;6.794;2023-02-21T11:48:34;100848.56;;;8.83;100.00
8627;BME280;4351;51.422;6.794;2023-02-21T11:51:15;100854.97;;;8.81;100.00
8627;BME280;4351;51.422;6.794;2023-02-21T11:53:44;100844.75;;;8.88;100.00
8627;BME280;4351;51.422;6.794;2023-02-21T11:56:19;100832.81;;;8.93;100.00
8627;BME280;4351;51.422;6.794;2023-02-21T11:58:55;100823.31;;;8.86;100.00
8627;BME280;4351;51.422;6.794;2023-02-21T12:01:28;100818.66;;;8.90;100.00
8627;BME280;4351;51.422;6.794;2023-02-21T12:04:25;100803.16;;;8.95;100.00
8627;BME280;4351;51.422;6.794;2023-02-21T12:07:03;100802.75;;;8.85;100.00
8627;BME280;4351;51.422;6.794;2023-02-21T12:09:38;100792.44;;;8.93;100.00
8627;BME280;4351;51.422;6.794;2023-02-21T12:12:17;100793.00;;;9.00;100.00
8627;BME280;4351;51.422;6.794;2023-02-21T12:15:00;100795.06;;;8.95;100.00
8627;BME280;4351;51.422;6.794;2023-02-21T12:17:56;100784.59;;;9.06;100.00
8627;BME280;4351;51.422;6.794;2023-02-21T12:20:40;100784.13;;;8.98;100.00
8627;BME280;4351;51.422;6.794;2023-02-21T12:23:17;100775.31;;;9.12;100.00
8627;BME280;4351;51.422;6.794;2023-02-21T12:26:00;100773.03;;;9.04;100.00
8627;BME280;4351;51.422;6.794;2023-02-21T12:28:38;100764.13;;;9.04;100.00
8627;BME280;4351;51.422;6.794;2023-02-21T12:31:25;100762.59;;;8.98;100.00
8627;BME280;4351;51.422;6.794;2023-02-21T12:34:09;100758.84;;;9.18;100.00
8627;BME280;4351;51.422;6.794;2023-02-21T12:36:51;100753.94;;;9.09;100.00
8627;BME280;4351;51.422;6.794;2023-02-21T12:39:36;100754.97;;;9.06;100.00
8627;BME280;4351;51.422;6.794;2023-02-21T12:42:29;100747.66;;;8.92;100.00
8627;BME280;4351;51.422;6.794;2023-02-21T12:45:13;100742.97;;;8.96;100.00
8627;BME280;4351;51.422;6.794;2023-02-21T12:47:54;100749.00;;;9.01;100.00
8627;BME280;4351;51.422;6.794;2023-02-21T12:50:27;100754.34;;;9.19;100.00
8627;BME280;4351;51.422;6.794;2023-02-21T12:53:01;100749.97;;;9.16;100.00
8627;BME280;4351;51.422;6.794;2023-02-21T12:55:33;100744.22;;;9.06;100.00
8627;BME280;4351;51.422;6.794;2023-02-21T12:58:12;100744.75;;;8.97;100.00
8627;BME280;4351;51.422;6.794;2023-02-21T13:00:44;100748.75;;;9.06;100.00
8627;BME280;4351;51.422;6.794;2023-02-21T13:03:30;100747.72;;;8.91;100.00
8627;BME280;4351;51.422;6.794;2023-02-21T13:06:05;100743.84;;;8.96;100.00
8627;BME280;4351;51.422;6.794;2023-02-21T13:08:44;100749.16;;;8.98;100.00
8627;BME280;4351;51.422;6.794;2023-02-21T13:11:21;100750.41;;;8.91;100.00
8627;BME280;4351;51.422;6.794;2023-02-21T13:13:51;100749.16;;;8.98;100.00
8627;BME280;4351;51.422;6.794;2023-02-21T13:16:19;100753.25;;;9.05;100.00
8627;BME280;4351;51.422;6.794;2023-02-21T13:18:51;100753.66;;;8.97;100.00
8627;BME280;4351;51.422;6.794;2023-02-21T13:21:35;100750.13;;;8.97;100.00
8627;BME280;4351;51.422;6.794;2023-02-21T13:24:30;100749.56;;;8.90;100.00
8627;BME280;4351;51.422;6.794;2023-02-21T13:27:25;100762.28;;;8.87;100.00
8627;BME280;4351;51.422;6.794;2023-02-21T13:30:02;100752.03;;;8.95;100.00
8627;BME280;4351;51.422;6.794;2023-02-21T13:32:36;100753.09;;;8.91;100.00
8627;BME280;4351;51.422;6.794;2023-02-21T13:35:06;100753.84;;;8.77;100.00
8627;BME280;4351;51.422;6.794;2023-02-21T13:37:43;100764.63;;;8.77;100.00
8627;BME280;4351;51.422;6.794;2023-02-21T13:40:19;100771.66;;;8.79;100.00
8627;BME280;4351;51.422;6.794;2023-02-21T13:43:01;100773.00;;;8.88;100.00
8627;BME280;4351;51.422;6.794;2023-02-21T13:45:30;100783.38;;;8.78;100.00
8627;BME280;4351;51.422;6.794;2023-02-21T13:48:28;100787.00;;;8.95;100.00
8627;BME280;4351;51.422;6.794;2023-02-21T13:50:59;100793.66;;;8.88;100.00
8627;BME280;4351;51.422;6.794;2023-02-21T13:53:29;100792.06;;;8.83;100.00